Etusivu
METAR-TAF:

METAR-TAF

Lentoasemat :

Geneve, Sveitsi

Geneven kansainvälinen lentoasema

Leveyspiiri: 46-15N, Pituuspiiri: 006-08E, korkeus merenpinnasta: 420 m

Tämänhetkinen sää

Tämä raportti tehtiin 16 minuuttia sitten, kello 15.20 UTC
Tuuli 3 kn lännestä, vaihdellen etelän ja pohjoisen välillä
Lämpötila 27°C
Kosteus 34%
Ilmanpaine 1017 hPa
Näkyvyys 10 km tai enemmän
Muutamia pilviä 6000 ft:n korkeudessa

METAR: LSGG 251520Z 27003KT 190V010 9999 FEW060 27/10 Q1017 NOSIG

Aika: 17:36 (15:36 UTC)


TAF: puuttuu

Säähavainnot ja -ennusteet yli 4000 lentoasemalta (METAR- ja TAF-raportit).

Käytössä olevat sääasemat on merkitty karttaan keltaisilla ja punaisilla pisteillä.

Aseta hiiri pisteen päälle nähdäksesi sääaseman nimen.

Klikkaa sitten nähdäksesi säähavainnot ja -ennusteet.

Kartan vaihtaminen: klikkaa mustalla rastilla varustettuja vihreitä pisteitä, niin voit zoomata sisään; viivalla varustettua vihreää pistettä, niin voit zoomata ulos tai vihreitä nuolia, niin pääset viereisille kartoille.


METAR-TAF: